Time;durP1;ratioP1;P1;durP2;ratioP2;P2;SDS_P1;SDS_P2;PMS_P1;PMS_P2;Temp;Humidity;BMP_temperature;BMP_pressure;BME280_temperature;BME280_humidity;BME280_pressure;Samples;Min_cycle;Max_cycle;Signal;HPM_P1;HPM_P2
2021/05/27 00:01:43;;;;;;;2.90;2.10;;;12.50;99.90;;;;;;5048331;28;20280;-65
2021/05/27 00:04:10;;;;;;;2.00;1.60;;;12.40;99.90;;;;;;5046049;28;20205;-65
2021/05/27 00:06:37;;;;;;;1.70;1.60;;;12.40;99.90;;;;;;5047440;28;20284;-65
2021/05/27 00:09:04;;;;;;;2.63;2.00;;;12.40;99.90;;;;;;5046553;28;20241;-65
2021/05/27 00:11:31;;;;;;;3.50;2.67;;;12.40;99.90;;;;;;5045467;28;20267;-64
2021/05/27 00:13:58;;;;;;;3.17;1.90;;;12.30;99.90;;;;;;5048069;28;20198;-65
2021/05/27 00:16:25;;;;;;;2.60;2.20;;;12.30;99.90;;;;;;5049477;28;20300;-64
2021/05/27 00:18:52;;;;;;;2.63;1.87;;;12.30;99.90;;;;;;5047555;28;20340;-65
2021/05/27 00:21:20;;;;;;;2.00;1.90;;;12.20;99.90;;;;;;5040444;28;20203;-65
2021/05/27 00:23:47;;;;;;;2.90;1.50;;;12.20;99.90;;;;;;5050163;28;20283;-65
2021/05/27 00:26:14;;;;;;;2.20;1.60;;;12.20;99.90;;;;;;5049419;28;20289;-65
2021/05/27 00:28:41;;;;;;;1.80;1.67;;;12.20;99.90;;;;;;5037286;28;20795;-64
2021/05/27 00:31:07;;;;;;;1.60;1.50;;;12.20;99.90;;;;;;5048457;28;20276;-65
2021/05/27 00:33:34;;;;;;;2.83;1.80;;;12.10;99.90;;;;;;5049045;28;20272;-66
2021/05/27 00:36:00;;;;;;;2.13;1.60;;;12.10;99.90;;;;;;5049817;28;20194;-65
2021/05/27 00:38:27;;;;;;;1.80;1.23;;;12.10;99.90;;;;;;5049199;28;20226;-64
2021/05/27 00:40:55;;;;;;;1.83;1.47;;;12.10;99.90;;;;;;5050578;28;20224;-65
2021/05/27 00:43:21;;;;;;;1.60;1.50;;;12.10;99.90;;;;;;5047613;28;20204;-65
2021/05/27 00:45:48;;;;;;;1.60;1.50;;;12.10;99.90;;;;;;5066532;28;20664;-64
2021/05/27 00:50:55;;;;;;;1.43;1.20;;;12.00;99.90;;;;;;5043375;28;20203;-64
2021/05/27 00:53:22;;;;;;;1.60;1.40;;;12.00;99.90;;;;;;5045360;28;20331;-65
2021/05/27 00:55:49;;;;;;;1.30;1.20;;;12.00;99.90;;;;;;5049366;28;20283;-64
2021/05/27 00:58:20;;;;;;;1.50;1.40;;;12.00;99.90;;;;;;5047508;28;20233;-65
2021/05/27 01:00:46;;;;;;;2.80;1.33;;;12.10;99.90;;;;;;5047750;28;20234;-64
2021/05/27 01:03:12;;;;;;;1.87;1.20;;;12.10;99.90;;;;;;5044836;28;20285;-64
2021/05/27 01:05:39;;;;;;;1.70;1.60;;;12.10;99.90;;;;;;5043578;28;20300;-65
2021/05/27 01:08:06;;;;;;;2.23;1.70;;;12.10;99.90;;;;;;5041198;28;20720;-64
2021/05/27 01:10:35;;;;;;;2.67;1.90;;;12.10;99.90;;;;;;5048079;28;20721;-65
2021/05/27 01:13:02;;;;;;;1.60;1.50;;;12.20;99.90;;;;;;5035856;28;20204;-64
2021/05/27 01:15:30;;;;;;;1.90;1.80;;;12.20;99.90;;;;;;5040658;28;20237;-63
2021/05/27 01:17:59;;;;;;;2.43;1.80;;;12.20;99.90;;;;;;5040232;28;20224;-64
2021/05/27 01:20:27;;;;;;;2.20;2.00;;;12.20;99.90;;;;;;5049330;28;20226;-64
2021/05/27 01:22:55;;;;;;;2.03;1.93;;;12.10;99.90;;;;;;5049582;28;20201;-65
2021/05/27 01:25:22;;;;;;;2.53;1.90;;;12.20;99.90;;;;;;5038611;28;20264;-64
2021/05/27 01:27:49;;;;;;;1.63;1.53;;;12.20;99.90;;;;;;5037967;28;20611;-64
2021/05/27 01:30:17;;;;;;;1.70;1.60;;;12.20;99.90;;;;;;5047353;28;20202;-65
2021/05/27 01:32:43;;;;;;;1.73;1.63;;;12.30;99.90;;;;;;5048787;28;20219;-64
2021/05/27 01:35:16;;;;;;;1.70;1.60;;;12.30;99.90;;;;;;5047020;28;20210;-64
2021/05/27 01:37:42;;;;;;;1.67;1.53;;;12.40;99.90;;;;;;5047699;28;20454;-64
2021/05/27 01:40:11;;;;;;;1.40;1.30;;;12.40;99.90;;;;;;5048565;28;20531;-64
2021/05/27 01:42:39;;;;;;;1.40;1.30;;;12.40;99.90;;;;;;5047819;28;20210;-64
2021/05/27 01:45:06;;;;;;;1.93;1.50;;;12.40;99.90;;;;;;5041868;28;20280;-64
2021/05/27 01:47:33;;;;;;;1.40;1.30;;;12.40;99.90;;;;;;5043301;28;20324;-64
2021/05/27 01:50:00;;;;;;;1.43;1.20;;;12.50;99.90;;;;;;5035888;28;20197;-65
2021/05/27 01:52:27;;;;;;;1.97;1.40;;;12.60;99.90;;;;;;5046642;28;20316;-66
2021/05/27 01:54:54;;;;;;;1.50;1.40;;;12.60;99.90;;;;;;5043727;28;20209;-65
2021/05/27 01:57:22;;;;;;;2.40;1.40;;;12.60;99.90;;;;;;5048622;28;20217;-65
2021/05/27 01:59:49;;;;;;;1.93;1.80;;;12.60;99.90;;;;;;5036927;28;20225;-64
2021/05/27 02:02:16;;;;;;;2.20;1.30;;;12.60;99.90;;;;;;5047718;28;20245;-65
2021/05/27 02:04:44;;;;;;;2.10;1.67;;;12.60;99.90;;;;;;5046056;28;20226;-65
2021/05/27 02:07:12;;;;;;;1.90;1.80;;;12.60;99.90;;;;;;5048174;28;20193;-65
2021/05/27 02:09:40;;;;;;;1.47;1.40;;;12.70;99.90;;;;;;5046678;28;20232;-65
2021/05/27 02:12:08;;;;;;;1.30;1.30;;;12.60;99.90;;;;;;5049082;28;20288;-65
2021/05/27 02:14:36;;;;;;;3.43;1.60;;;12.70;99.90;;;;;;5046172;28;20247;-65
2021/05/27 02:17:02;;;;;;;1.30;1.30;;;12.70;99.90;;;;;;5048616;28;20213;-65
2021/05/27 02:19:29;;;;;;;1.60;1.50;;;12.70;99.90;;;;;;5041771;28;20226;-66
2021/05/27 02:21:56;;;;;;;1.40;1.30;;;12.70;99.90;;;;;;5045399;28;20199;-65
2021/05/27 02:24:43;;;;;;;2.33;1.70;;;12.80;99.90;;;;;;5044491;28;20634;-65
2021/05/27 02:27:12;;;;;;;1.80;1.70;;;12.80;99.90;;;;;;5041853;28;20225;-65
2021/05/27 02:29:40;;;;;;;1.97;1.87;;;12.70;99.90;;;;;;5044810;28;20294;-65
2021/05/27 02:32:10;;;;;;;1.67;1.57;;;12.70;99.90;;;;;;5047291;28;20586;-65
2021/05/27 02:34:37;;;;;;;1.43;1.33;;;12.70;99.90;;;;;;5046290;28;20197;-65
2021/05/27 02:37:04;;;;;;;1.70;1.60;;;12.70;99.90;;;;;;5046848;28;20264;-65
2021/05/27 02:39:37;;;;;;;1.50;1.40;;;12.70;99.90;;;;;;5047358;28;20201;-65
2021/05/27 02:42:06;;;;;;;1.60;1.50;;;12.70;99.90;;;;;;5047438;28;20201;-65
2021/05/27 02:44:34;;;;;;;1.43;1.33;;;12.60;99.90;;;;;;5040988;28;20281;-65
2021/05/27 02:47:01;;;;;;;1.67;1.57;;;12.60;99.90;;;;;;5041704;28;20226;-65
2021/05/27 02:49:28;;;;;;;1.30;1.20;;;12.60;99.90;;;;;;5045288;28;20201;-65
2021/05/27 02:51:58;;;;;;;1.40;1.30;;;12.60;99.90;;;;;;5047183;28;20415;-65
2021/05/27 02:54:25;;;;;;;2.60;1.60;;;12.50;99.90;;;;;;5040690;28;20235;-65
2021/05/27 02:56:52;;;;;;;1.40;1.30;;;12.50;99.90;;;;;;5046662;28;20204;-65
2021/05/27 02:59:22;;;;;;;1.60;1.50;;;12.50;99.90;;;;;;5044334;28;20236;-65
2021/05/27 03:01:51;;;;;;;1.57;1.47;;;12.50;99.90;;;;;;5044615;28;20675;-65
2021/05/27 03:04:18;;;;;;;1.60;1.50;;;12.40;99.90;;;;;;5050128;28;20204;-65
2021/05/27 03:06:45;;;;;;;1.90;1.70;;;12.50;99.90;;;;;;5051518;28;20208;-64
2021/05/27 03:09:12;;;;;;;2.53;2.00;;;12.40;99.90;;;;;;5046686;28;20586;-65
2021/05/27 03:11:38;;;;;;;2.03;1.93;;;12.40;99.90;;;;;;5042022;28;20229;-64
2021/05/27 03:14:06;;;;;;;2.20;2.10;;;12.40;99.90;;;;;;5049674;28;20686;-64
2021/05/27 03:16:46;;;;;;;3.10;2.60;;;12.40;99.90;;;;;;5045672;28;20197;-65
2021/05/27 03:19:13;;;;;;;2.67;2.47;;;12.40;99.90;;;;;;5043905;28;20230;-65
2021/05/27 03:21:40;;;;;;;2.60;2.40;;;12.40;99.90;;;;;;5048678;28;20190;-64
2021/05/27 03:24:07;;;;;;;2.63;2.43;;;12.40;99.90;;;;;;5047490;28;20217;-65
2021/05/27 03:26:34;;;;;;;3.10;2.90;;;12.40;99.90;;;;;;5045019;28;20226;-65
2021/05/27 03:29:00;;;;;;;2.93;2.73;;;12.40;99.90;;;;;;5049503;28;20316;-65
2021/05/27 03:31:27;;;;;;;2.90;2.60;;;12.40;99.90;;;;;;5052494;28;20216;-65
2021/05/27 03:33:54;;;;;;;2.47;2.37;;;12.50;99.90;;;;;;5050311;28;20547;-65
2021/05/27 03:36:21;;;;;;;2.70;2.50;;;12.50;99.90;;;;;;5050989;28;20200;-65
2021/05/27 03:38:51;;;;;;;2.17;2.07;;;12.60;99.90;;;;;;5038168;28;20749;-65
2021/05/27 03:41:17;;;;;;;2.20;2.10;;;12.60;99.90;;;;;;5045187;28;20205;-65
2021/05/27 03:43:45;;;;;;;3.33;3.03;;;12.60;99.90;;;;;;5038446;28;20688;-64
2021/05/27 03:46:14;;;;;;;2.73;2.53;;;12.60;99.90;;;;;;5045817;28;20678;-65
2021/05/27 03:48:42;;;;;;;2.80;2.60;;;12.70;99.90;;;;;;5047316;28;20202;-65
2021/05/27 03:51:08;;;;;;;2.67;2.47;;;12.70;99.90;;;;;;5046107;28;20211;-65
2021/05/27 03:53:37;;;;;;;2.53;2.33;;;12.80;99.90;;;;;;5049376;28;20255;-65
2021/05/27 03:56:07;;;;;;;2.30;2.10;;;12.90;99.90;;;;;;5047072;28;20554;-65
2021/05/27 04:01:31;;;;;;;2.17;2.00;;;13.10;99.90;;;;;;5050166;28;20208;-65
2021/05/27 04:07:10;;;;;;;2.37;2.23;;;13.20;99.90;;;;;;5049211;28;20205;-65
2021/05/27 04:09:36;;;;;;;1.97;1.87;;;13.30;99.90;;;;;;5050046;28;20256;-65
2021/05/27 04:17:31;;;;;;;2.23;2.10;;;13.50;99.90;;;;;;5047256;28;20267;-66
2021/05/27 04:19:58;;;;;;;4.23;2.70;;;13.50;99.90;;;;;;5050013;28;20708;-64
2021/05/27 04:22:24;;;;;;;2.73;2.53;;;13.50;99.90;;;;;;5041205;28;20226;-65
2021/05/27 04:24:51;;;;;;;2.53;2.33;;;13.60;99.90;;;;;;5048666;28;20772;-64
2021/05/27 04:27:18;;;;;;;2.70;2.50;;;13.60;99.90;;;;;;5050586;28;20276;-64
2021/05/27 04:29:45;;;;;;;2.43;2.33;;;13.60;99.90;;;;;;5048101;28;20276;-65
2021/05/27 04:32:53;;;;;;;2.53;2.37;;;13.60;99.90;;;;;;5051168;28;20201;-65
2021/05/27 04:34:58;;;;;;;2.63;2.47;;;13.70;99.90;;;;;;5049648;28;20210;-65
2021/05/27 04:37:24;;;;;;;2.97;2.70;;;13.70;99.90;;;;;;5050106;28;20193;-65
2021/05/27 04:39:50;;;;;;;3.57;2.70;;;13.80;99.90;;;;;;5047449;28;20636;-65
2021/05/27 04:42:18;;;;;;;2.70;2.50;;;13.80;99.90;;;;;;5050313;28;20626;-65
2021/05/27 04:44:44;;;;;;;2.63;2.43;;;13.80;99.90;;;;;;5040537;28;20613;-66
2021/05/27 04:47:11;;;;;;;2.33;2.23;;;13.80;99.90;;;;;;5043312;28;20529;-66
2021/05/27 04:49:37;;;;;;;2.57;2.40;;;13.80;99.90;;;;;;5048743;28;20199;-65
2021/05/27 04:52:04;;;;;;;2.17;2.07;;;13.80;99.90;;;;;;5050449;28;20202;-64
2021/05/27 04:54:30;;;;;;;2.60;2.40;;;13.80;99.90;;;;;;5048015;28;20208;-64
2021/05/27 04:56:57;;;;;;;3.77;2.30;;;13.80;99.90;;;;;;5049903;28;20200;-65
2021/05/27 04:59:25;;;;;;;2.20;2.10;;;13.80;99.90;;;;;;5046199;28;20319;-65
2021/05/27 05:01:51;;;;;;;2.10;1.93;;;13.80;99.90;;;;;;5046041;28;20682;-65
2021/05/27 05:04:18;;;;;;;2.20;2.00;;;13.90;99.90;;;;;;5041915;28;20200;-65
2021/05/27 05:06:44;;;;;;;3.33;3.03;;;13.90;99.90;;;;;;5048114;28;20205;-65
2021/05/27 05:09:11;;;;;;;2.67;2.47;;;13.80;99.90;;;;;;5048823;28;20312;-65
2021/05/27 05:11:37;;;;;;;3.40;3.10;;;13.80;99.90;;;;;;5050066;28;20195;-66
2021/05/27 05:14:04;;;;;;;3.20;2.90;;;13.80;99.90;;;;;;5047282;28;20202;-65
2021/05/27 05:16:31;;;;;;;2.87;2.60;;;13.80;99.90;;;;;;5049540;28;20305;-65
2021/05/27 05:18:58;;;;;;;3.53;2.70;;;13.80;99.90;;;;;;5046987;28;20322;-66
2021/05/27 05:21:24;;;;;;;3.33;2.13;;;13.80;99.90;;;;;;5049753;28;20218;-65
2021/05/27 05:23:50;;;;;;;2.80;2.60;;;13.70;99.90;;;;;;5048930;28;20347;-66
2021/05/27 05:26:17;;;;;;;3.07;2.87;;;13.70;99.90;;;;;;5049301;28;20587;-66
2021/05/27 05:28:43;;;;;;;3.10;2.90;;;13.70;99.90;;;;;;5047078;28;20297;-65
2021/05/27 05:31:10;;;;;;;3.10;2.80;;;13.70;99.90;;;;;;5048380;28;20567;-66
2021/05/27 05:33:37;;;;;;;2.93;2.37;;;13.70;99.90;;;;;;5040267;28;20227;-66
2021/05/27 05:36:04;;;;;;;2.93;2.63;;;13.70;99.90;;;;;;5045505;28;20311;-65
2021/05/27 05:38:30;;;;;;;3.33;3.10;;;13.70;99.90;;;;;;5047583;28;20222;-65
2021/05/27 05:40:57;;;;;;;3.07;2.87;;;13.60;99.90;;;;;;5049620;28;20285;-65
2021/05/27 05:43:24;;;;;;;4.33;3.93;;;13.60;99.90;;;;;;5046100;28;20223;-65
2021/05/27 05:45:50;;;;;;;3.93;3.53;;;13.50;99.90;;;;;;5038094;28;20241;-64
2021/05/27 05:48:16;;;;;;;4.17;3.10;;;13.50;99.90;;;;;;5048601;28;20343;-65
2021/05/27 05:50:48;;;;;;;4.80;3.20;;;13.40;99.90;;;;;;5048404;28;20686;-65
2021/05/27 05:53:17;;;;;;;4.50;4.10;;;13.40;99.90;;;;;;5049175;28;20673;-65
2021/05/27 05:55:44;;;;;;;3.40;3.00;;;13.40;99.90;;;;;;5048799;28;20256;-65
2021/05/27 05:58:11;;;;;;;4.00;3.60;;;13.40;99.90;;;;;;5046786;28;20769;-65
2021/05/27 06:00:38;;;;;;;4.17;3.20;;;13.40;99.90;;;;;;5034628;28;20217;-65
2021/05/27 06:03:05;;;;;;;3.00;2.80;;;13.30;99.90;;;;;;5044088;28;20222;-64
2021/05/27 06:06:10;;;;;;;3.40;3.10;;;13.30;99.90;;;;;;5046697;28;20712;-65
2021/05/27 06:08:56;;;;;;;4.17;2.70;;;13.30;99.90;;;;;;5047725;28;20271;-64
2021/05/27 06:11:24;;;;;;;3.20;2.80;;;13.30;99.90;;;;;;5042010;28;20615;-65
2021/05/27 06:13:50;;;;;;;3.00;2.80;;;13.40;99.90;;;;;;5034338;28;20680;-65
2021/05/27 06:16:18;;;;;;;2.97;2.30;;;13.40;99.90;;;;;;5042805;28;20214;-65
2021/05/27 06:18:44;;;;;;;3.40;2.80;;;13.40;99.90;;;;;;5047385;28;20246;-65
2021/05/27 06:21:47;;;;;;;4.70;2.87;;;13.50;99.90;;;;;;5014233;28;20195;-64
2021/05/27 06:24:21;;;;;;;2.90;2.70;;;13.60;99.90;;;;;;5002625;28;20207;-64
2021/05/27 06:26:48;;;;;;;2.70;2.10;;;13.60;99.90;;;;;;5012167;28;20738;-65
2021/05/27 06:29:14;;;;;;;2.23;2.10;;;13.60;99.90;;;;;;5014327;28;20688;-65
2021/05/27 06:31:45;;;;;;;2.50;2.30;;;13.70;99.90;;;;;;5009595;28;20211;-65
2021/05/27 06:34:12;;;;;;;1.97;1.87;;;13.70;99.90;;;;;;5024992;28;20261;-65
2021/05/27 06:36:38;;;;;;;2.53;2.20;;;13.80;99.90;;;;;;5012666;28;20214;-65
2021/05/27 06:39:07;;;;;;;2.30;2.20;;;13.80;99.90;;;;;;5024208;28;20763;-65
2021/05/27 06:41:33;;;;;;;2.93;2.50;;;13.80;99.90;;;;;;5025776;28;20288;-65
2021/05/27 06:44:00;;;;;;;3.63;3.30;;;13.70;99.90;;;;;;5022312;28;20260;-65
2021/05/27 06:46:27;;;;;;;2.60;2.40;;;13.80;99.90;;;;;;5025492;28;20210;-65
2021/05/27 06:48:55;;;;;;;2.70;2.50;;;13.80;99.90;;;;;;5017318;28;20208;-65
2021/05/27 06:51:21;;;;;;;2.60;2.40;;;13.80;99.90;;;;;;5024936;28;20200;-65
2021/05/27 06:53:48;;;;;;;2.53;2.37;;;13.90;99.90;;;;;;5014263;28;20204;-65
2021/05/27 06:56:23;;;;;;;2.40;2.20;;;13.90;99.90;;;;;;5015952;28;20293;-65
2021/05/27 06:58:50;;;;;;;2.60;2.40;;;13.90;99.90;;;;;;5030481;28;20874;-66
2021/05/27 07:01:16;;;;;;;3.23;2.93;;;14.00;99.90;;;;;;5042037;28;20238;-65
2021/05/27 07:03:43;;;;;;;2.47;2.33;;;14.00;99.90;;;;;;5037398;28;20789;-65
2021/05/27 07:06:10;;;;;;;2.20;2.10;;;14.10;99.90;;;;;;5039826;28;20963;-64
2021/05/27 07:08:39;;;;;;;2.30;2.20;;;14.10;99.90;;;;;;5040027;28;20526;-66
2021/05/27 07:11:05;;;;;;;2.30;2.10;;;14.10;99.90;;;;;;5036743;28;20555;-65
2021/05/27 07:13:33;;;;;;;2.07;1.97;;;14.20;99.90;;;;;;5037798;28;20545;-65
2021/05/27 07:15:59;;;;;;;3.20;2.90;;;14.30;99.90;;;;;;5070971;28;21377;-65
2021/05/27 07:18:26;;;;;;;2.73;2.53;;;14.40;99.90;;;;;;5043135;28;20867;-65
2021/05/27 07:20:52;;;;;;;3.13;2.60;;;14.40;99.90;;;;;;5026383;28;20212;-66
2021/05/27 07:23:19;;;;;;;1.90;1.80;;;14.50;99.90;;;;;;5029910;28;20284;-65
2021/05/27 07:25:45;;;;;;;2.00;1.90;;;14.50;99.90;;;;;;5042500;28;20272;-67
2021/05/27 07:28:12;;;;;;;2.30;2.10;;;14.60;99.90;;;;;;5037418;28;21219;-66
2021/05/27 07:30:40;;;;;;;2.30;2.10;;;14.60;99.90;;;;;;5034398;28;20607;-67
2021/05/27 07:33:06;;;;;;;3.93;2.10;;;14.70;99.90;;;;;;5037452;28;20275;-68
2021/05/27 07:35:32;;;;;;;2.40;2.20;;;14.80;99.90;;;;;;5021485;28;20437;-68
2021/05/27 07:38:00;;;;;;;2.78;2.58;;;14.80;99.90;;;;;;5038241;28;20530;-67
2021/05/27 07:40:27;;;;;;;2.20;2.10;;;14.90;99.90;;;;;;5032674;28;20664;-68
2021/05/27 07:42:54;;;;;;;2.65;2.45;;;15.30;99.90;;;;;;5033626;28;21106;-67
2021/05/27 07:45:20;;;;;;;2.83;2.30;;;15.40;99.90;;;;;;5028946;28;20222;-68
2021/05/27 07:47:48;;;;;;;2.28;2.15;;;15.70;99.90;;;;;;5035344;28;20425;-68
2021/05/27 07:50:20;;;;;;;2.73;2.47;;;16.00;99.90;;;;;;5038262;28;20230;-68
2021/05/27 07:52:46;;;;;;;2.07;1.93;;;16.20;99.90;;;;;;5036954;28;20591;-68
2021/05/27 07:55:13;;;;;;;1.90;1.80;;;16.40;99.90;;;;;;5042314;28;20217;-68
2021/05/27 07:57:40;;;;;;;1.43;1.33;;;16.60;99.90;;;;;;5025602;28;20225;-68
2021/05/27 08:00:08;;;;;;;1.70;1.60;;;16.80;99.90;;;;;;5037463;28;20221;-67
2021/05/27 08:02:41;;;;;;;1.70;1.60;;;17.00;99.90;;;;;;5038238;28;20499;-67
2021/05/27 08:05:10;;;;;;;1.30;1.20;;;17.00;99.90;;;;;;5038052;28;20225;-67
2021/05/27 08:07:37;;;;;;;1.80;1.70;;;17.10;99.90;;;;;;5044300;28;20695;-68
2021/05/27 08:10:04;;;;;;;1.27;1.17;;;17.20;99.90;;;;;;5039949;28;20245;-68
2021/05/27 08:12:31;;;;;;;1.70;1.60;;;17.20;99.90;;;;;;5044329;28;20195;-68
2021/05/27 08:14:58;;;;;;;1.50;1.50;;;17.10;99.90;;;;;;5040253;28;20423;-67
2021/05/27 08:17:25;;;;;;;1.40;1.30;;;17.00;99.90;;;;;;5044680;28;20842;-66
2021/05/27 08:19:51;;;;;;;1.30;1.30;;;16.90;99.90;;;;;;5035001;28;20223;-67
2021/05/27 08:22:18;;;;;;;1.23;1.23;;;16.90;99.90;;;;;;5046750;28;20625;-67
2021/05/27 08:24:45;;;;;;;1.10;1.10;;;16.80;99.90;;;;;;5042005;28;20267;-68
2021/05/27 08:27:12;;;;;;;1.23;1.13;;;16.80;99.90;;;;;;5046486;28;20631;-69
2021/05/27 08:29:38;;;;;;;1.20;1.10;;;16.90;99.90;;;;;;5039190;28;20317;-69
2021/05/27 08:32:06;;;;;;;1.03;1.03;;;17.00;99.90;;;;;;5042377;28;20259;-68
2021/05/27 08:34:32;;;;;;;1.13;1.00;;;17.10;99.90;;;;;;5045637;28;20198;-68
2021/05/27 08:36:59;;;;;;;1.47;1.37;;;17.20;99.90;;;;;;5046712;28;20249;-68
2021/05/27 08:39:26;;;;;;;1.10;1.10;;;17.40;99.90;;;;;;5038680;28;20228;-67
2021/05/27 08:41:53;;;;;;;1.48;1.38;;;17.50;99.90;;;;;;5036040;28;20432;-67
2021/05/27 08:44:19;;;;;;;1.57;1.47;;;17.50;99.90;;;;;;5041033;28;20231;-68
2021/05/27 08:46:48;;;;;;;1.50;1.40;;;17.40;99.90;;;;;;5043511;28;20695;-67
2021/05/27 08:49:14;;;;;;;1.03;1.03;;;17.50;99.90;;;;;;5038364;28;20197;-68
2021/05/27 08:51:41;;;;;;;2.17;1.53;;;17.60;99.90;;;;;;5034154;28;20702;-67
2021/05/27 08:54:08;;;;;;;2.50;1.60;;;17.60;99.90;;;;;;5041744;28;20195;-67
2021/05/27 08:56:36;;;;;;;1.40;1.40;;;17.70;99.90;;;;;;5043531;28;20337;-67
2021/05/27 08:59:02;;;;;;;1.77;1.67;;;17.80;99.90;;;;;;5036084;28;20450;-68
2021/05/27 09:01:29;;;;;;;1.83;1.73;;;17.80;99.90;;;;;;5040911;28;20651;-67
2021/05/27 09:03:55;;;;;;;1.60;1.50;;;17.90;99.90;;;;;;5037434;28;20419;-68
2021/05/27 09:06:23;;;;;;;1.60;1.50;;;18.00;99.90;;;;;;5035671;28;20481;-68
2021/05/27 09:08:50;;;;;;;1.70;1.60;;;18.40;99.90;;;;;;5035601;28;20442;-68
2021/05/27 09:11:20;;;;;;;1.50;1.40;;;18.60;99.90;;;;;;5038164;28;20312;-66
2021/05/27 09:13:57;;;;;;;1.80;1.70;;;18.90;99.90;;;;;;5036075;28;20191;-67
2021/05/27 09:16:23;;;;;;;1.30;1.30;;;19.20;99.90;;;;;;5035538;28;20205;-68
2021/05/27 09:18:50;;;;;;;1.60;1.50;;;19.30;99.90;;;;;;5040367;28;20328;-69
2021/05/27 09:21:31;;;;;;;1.83;1.73;;;19.50;99.90;;;;;;5037740;28;20265;-68
2021/05/27 09:23:58;;;;;;;1.60;1.50;;;19.50;99.90;;;;;;5031909;28;20360;-68
2021/05/27 09:26:24;;;;;;;2.53;1.77;;;19.60;99.90;;;;;;5045798;28;20260;-68
2021/05/27 09:28:51;;;;;;;1.42;1.33;;;19.80;99.90;;;;;;5040679;28;20194;-69
2021/05/27 09:31:23;;;;;;;1.75;1.50;;;20.30;99.90;;;;;;5041560;28;20229;-67
2021/05/27 09:34:01;;;;;;;1.75;1.63;;;20.90;99.90;;;;;;5037836;28;20674;-67
2021/05/27 09:36:28;;;;;;;1.67;1.58;;;21.60;99.90;;;;;;5043458;28;20677;-68
2021/05/27 09:38:56;;;;;;;1.35;1.35;;;22.30;99.90;;;;;;5043566;28;20296;-67
2021/05/27 09:41:24;;;;;;;1.50;1.40;;;23.10;99.90;;;;;;5042520;28;20280;-67
2021/05/27 09:43:52;;;;;;;1.70;1.60;;;23.50;99.90;;;;;;5042020;28;20288;-68
2021/05/27 09:46:20;;;;;;;1.60;1.50;;;23.70;99.90;;;;;;5040663;28;20260;-69
2021/05/27 09:48:47;;;;;;;1.73;1.63;;;23.90;98.90;;;;;;5044903;28;20449;-68
2021/05/27 09:51:26;;;;;;;1.67;1.58;;;24.10;97.30;;;;;;5035703;28;20218;-68
2021/05/27 09:53:53;;;;;;;1.40;1.30;;;24.60;95.80;;;;;;5037444;28;20308;-68
2021/05/27 09:56:32;;;;;;;1.70;1.60;;;25.10;94.90;;;;;;5037944;28;20194;-69
2021/05/27 09:58:59;;;;;;;1.95;1.65;;;25.80;91.70;;;;;;5032675;28;20253;-68
2021/05/27 10:01:26;;;;;;;1.35;1.30;;;26.50;89.00;;;;;;5040861;28;20196;-69
2021/05/27 10:03:53;;;;;;;1.15;1.15;;;27.10;85.10;;;;;;5036887;28;20226;-68
2021/05/27 10:06:19;;;;;;;1.45;1.45;;;27.80;79.60;;;;;;5037200;28;20638;-68
2021/05/27 10:08:51;;;;;;;3.10;2.10;;;28.00;74.80;;;;;;5033287;28;20805;-69
2021/05/27 10:11:19;;;;;;;14.05;3.38;;;28.50;70.90;;;;;;5035951;28;20212;-69
2021/05/27 10:13:46;;;;;;;24.95;5.05;;;29.10;68.10;;;;;;5032668;28;20201;-69
2021/05/27 10:16:15;;;;;;;28.70;5.22;;;29.70;65.30;;;;;;5038110;28;20757;-69
2021/05/27 10:18:42;;;;;;;2.47;1.80;;;30.10;61.80;;;;;;5037562;28;20218;-70
2021/05/27 10:21:10;;;;;;;1.20;1.20;;;30.00;59.40;;;;;;5037392;28;21026;-69
2021/05/27 10:23:37;;;;;;;1.13;1.13;;;30.40;58.40;;;;;;5039903;28;20193;-69
2021/05/27 10:26:03;;;;;;;1.05;1.05;;;30.90;57.50;;;;;;5031071;28;21344;-70
2021/05/27 10:28:31;;;;;;;1.83;1.27;;;31.40;55.90;;;;;;5035400;28;20664;-67
2021/05/27 10:30:58;;;;;;;1.10;1.00;;;31.80;54.50;;;;;;5039526;28;20670;-67
2021/05/27 10:33:25;;;;;;;1.35;1.30;;;31.90;53.60;;;;;;5039530;28;20276;-67
2021/05/27 10:35:57;;;;;;;1.10;1.10;;;31.90;52.30;;;;;;5042523;28;20236;-67
2021/05/27 10:38:47;;;;;;;1.08;1.08;;;31.70;51.20;;;;;;5041990;28;20309;-66
2021/05/27 10:41:15;;;;;;;1.27;1.25;;;31.80;50.80;;;;;;5043237;28;20197;-67
2021/05/27 10:44:12;;;;;;;1.10;1.10;;;31.90;49.80;;;;;;5041779;28;20267;-66
2021/05/27 10:47:16;;;;;;;1.15;0.95;;;31.70;49.80;;;;;;5040931;28;20251;-66
2021/05/27 10:49:53;;;;;;;1.52;1.50;;;31.70;49.00;;;;;;5042290;28;20186;-66
2021/05/27 10:52:41;;;;;;;1.30;1.30;;;31.80;48.30;;;;;;5037469;28;20229;-65
2021/05/27 10:55:43;;;;;;;1.30;1.25;;;31.80;47.40;;;;;;5040113;28;20202;-64
2021/05/27 10:58:10;;;;;;;1.17;1.17;;;31.80;47.50;;;;;;5035589;28;20208;-65
2021/05/27 11:00:50;;;;;;;1.85;1.35;;;31.70;47.40;;;;;;5037281;28;20220;-66
2021/05/27 11:03:42;;;;;;;1.40;1.30;;;31.70;46.80;;;;;;5041123;28;20697;-65
2021/05/27 11:06:23;;;;;;;1.27;1.27;;;31.40;46.70;;;;;;5036753;28;20226;-68
2021/05/27 11:09:31;;;;;;;1.10;1.10;;;31.00;46.70;;;;;;5033497;28;20325;-65
2021/05/27 11:12:10;;;;;;;1.33;1.20;;;30.70;46.60;;;;;;5040986;28;20811;-65
2021/05/27 11:14:39;;;;;;;1.15;1.10;;;30.50;46.90;;;;;;5035022;28;20277;-65
2021/05/27 11:17:25;;;;;;;0.90;0.90;;;30.30;46.50;;;;;;5033554;28;20691;-66
2021/05/27 11:19:56;;;;;;;2.13;1.00;;;30.20;46.70;;;;;;5037884;28;20249;-64
2021/05/27 11:22:53;;;;;;;1.25;1.15;;;29.80;46.30;;;;;;5035357;28;20252;-66
2021/05/27 11:25:26;;;;;;;1.08;1.08;;;29.40;46.70;;;;;;4978172;28;20220;-65
2021/05/27 11:27:54;;;;;;;1.35;1.10;;;29.00;46.50;;;;;;4996649;28;20313;-66
2021/05/27 11:30:22;;;;;;;0.80;0.80;;;28.70;46.20;;;;;;4975169;28;20303;-66
2021/05/27 11:32:50;;;;;;;0.90;0.90;;;28.40;46.40;;;;;;4962261;28;20211;-65
2021/05/27 11:35:18;;;;;;;3.03;1.40;;;28.10;46.70;;;;;;4977947;28;20206;-65
2021/05/27 11:37:45;;;;;;;13.48;2.60;;;27.80;46.30;;;;;;4979390;28;20208;-65
2021/05/27 11:40:14;;;;;;;11.45;2.20;;;27.50;46.10;;;;;;4977635;28;20240;-65
2021/05/27 11:42:47;;;;;;;1.00;1.00;;;27.10;46.20;;;;;;4981015;28;20219;-65
2021/05/27 11:45:13;;;;;;;0.95;0.95;;;26.80;46.50;;;;;;4981367;28;20226;-66
2021/05/27 11:47:40;;;;;;;1.00;0.90;;;26.50;46.60;;;;;;4982618;28;20200;-65
2021/05/27 11:50:08;;;;;;;0.90;0.90;;;26.10;46.50;;;;;;4983940;28;20204;-66
2021/05/27 11:52:35;;;;;;;0.70;0.70;;;26.00;46.90;;;;;;4984816;28;20215;-66
2021/05/27 11:55:03;;;;;;;0.70;0.70;;;25.70;46.90;;;;;;4973781;28;20436;-65
2021/05/27 11:57:43;;;;;;;0.80;0.80;;;25.70;46.90;;;;;;4984689;28;20313;-65
2021/05/27 12:00:11;;;;;;;0.80;0.70;;;25.50;46.90;;;;;;4976728;28;20228;-65
2021/05/27 12:02:43;;;;;;;0.90;0.90;;;25.40;46.80;;;;;;5020939;28;20489;-66
2021/05/27 12:05:21;;;;;;;0.60;0.60;;;25.50;46.50;;;;;;5041268;28;20217;-66
2021/05/27 12:08:01;;;;;;;0.80;0.80;;;25.40;46.60;;;;;;5042472;28;20485;-66
2021/05/27 12:10:30;;;;;;;0.70;0.70;;;25.50;46.30;;;;;;5036974;28;20253;-66
2021/05/27 12:12:58;;;;;;;0.80;0.80;;;25.50;46.60;;;;;;5045613;28;20278;-67
2021/05/27 12:15:27;;;;;;;1.40;0.90;;;25.60;46.70;;;;;;5042432;28;20244;-66
2021/05/27 12:17:56;;;;;;;1.08;0.90;;;25.90;46.90;;;;;;5041335;28;20193;-66
2021/05/27 12:20:29;;;;;;;2.00;0.98;;;26.20;47.00;;;;;;5040844;28;20229;-66
2021/05/27 12:22:57;;;;;;;0.90;0.90;;;26.80;46.90;;;;;;5035759;28;20289;-66
2021/05/27 12:25:26;;;;;;;0.90;0.90;;;26.90;46.40;;;;;;5039614;28;20661;-66
2021/05/27 12:27:54;;;;;;;1.02;0.90;;;26.90;45.90;;;;;;5039056;28;20666;-66
2021/05/27 12:30:25;;;;;;;0.77;0.77;;;26.70;45.90;;;;;;5045660;28;20281;-66
2021/05/27 12:32:53;;;;;;;1.25;0.85;;;26.50;46.50;;;;;;5041545;28;20194;-66
2021/05/27 12:35:23;;;;;;;0.70;0.70;;;26.10;46.70;;;;;;5043570;28;20193;-66
2021/05/27 12:37:54;;;;;;;0.70;0.70;;;25.80;47.00;;;;;;5045721;28;20263;-66
2021/05/27 12:40:24;;;;;;;0.90;0.90;;;25.50;47.50;;;;;;5043790;28;20225;-65
2021/05/27 12:42:52;;;;;;;0.80;0.80;;;25.10;47.90;;;;;;5040487;28;20217;-65
2021/05/27 12:45:31;;;;;;;0.90;0.90;;;24.70;48.20;;;;;;5040003;28;20628;-66
2021/05/27 12:48:17;;;;;;;1.02;0.70;;;24.30;48.90;;;;;;5033340;28;20212;-66
2021/05/27 12:50:59;;;;;;;0.88;0.88;;;23.90;49.20;;;;;;5042066;28;20208;-66
2021/05/27 12:53:27;;;;;;;0.60;0.60;;;23.60;49.60;;;;;;5037552;28;20211;-66
2021/05/27 12:55:55;;;;;;;0.60;0.60;;;23.30;50.10;;;;;;5042867;28;20206;-65
2021/05/27 12:58:32;;;;;;;0.60;0.60;;;23.00;50.60;;;;;;5044044;28;20228;-66
2021/05/27 13:01:01;;;;;;;52.80;9.33;;;22.80;51.00;;;;;;5038576;28;20431;-65
2021/05/27 13:03:29;;;;;;;2.97;1.17;;;22.70;51.10;;;;;;5044785;28;20271;-65
2021/05/27 13:06:10;;;;;;;8.52;1.73;;;22.60;51.40;;;;;;5042814;28;20250;-65
2021/05/27 13:08:38;;;;;;;0.60;0.60;;;22.40;51.70;;;;;;5038923;28;20297;-65
2021/05/27 13:11:24;;;;;;;0.50;0.50;;;22.20;52.50;;;;;;5045253;28;20646;-64